sensor_id;sensor_type;location;lat;lon;timestamp;pressure;altitude;pressure_sealevel;temperature;humidity
73297;BME280;61524;50.938;11.396;2024-03-02T00:01:07;97980.34;;;2.51;100.00
73297;BME280;61524;50.938;11.396;2024-03-02T00:03:36;97976.59;;;2.58;100.00
73297;BME280;61524;50.938;11.396;2024-03-02T00:06:02;97968.91;;;2.57;100.00
73297;BME280;61524;50.938;11.396;2024-03-02T00:08:29;97974.31;;;2.62;100.00
73297;BME280;61524;50.938;11.396;2024-03-02T00:10:59;97986.59;;;2.68;100.00
73297;BME280;61524;50.938;11.396;2024-03-02T00:13:25;97984.56;;;2.70;100.00
73297;BME280;61524;50.938;11.396;2024-03-02T00:15:55;97982.75;;;2.71;100.00
73297;BME280;61524;50.938;11.396;2024-03-02T00:18:31;97977.09;;;2.67;100.00
73297;BME280;61524;50.938;11.396;2024-03-02T00:20:58;97965.38;;;2.63;100.00
73297;BME280;61524;50.938;11.396;2024-03-02T00:23:26;97973.97;;;2.58;100.00
73297;BME280;61524;50.938;11.396;2024-03-02T00:25:54;97976.00;;;2.56;100.00
73297;BME280;61524;50.938;11.396;2024-03-02T00:28:40;97967.16;;;2.51;100.00
73297;BME280;61524;50.938;11.396;2024-03-02T00:31:09;97979.09;;;2.53;100.00
73297;BME280;61524;50.938;11.396;2024-03-02T00:33:43;97966.91;;;2.52;100.00
73297;BME280;61524;50.938;11.396;2024-03-02T00:36:10;97970.31;;;2.59;100.00
73297;BME280;61524;50.938;11.396;2024-03-02T00:38:55;97967.00;;;2.64;100.00
73297;BME280;61524;50.938;11.396;2024-03-02T00:44:04;97957.97;;;2.72;100.00
73297;BME280;61524;50.938;11.396;2024-03-02T00:46:40;97965.22;;;2.76;100.00
73297;BME280;61524;50.938;11.396;2024-03-02T00:49:23;97952.75;;;2.83;100.00
73297;BME280;61524;50.938;11.396;2024-03-02T00:51:51;97958.38;;;2.87;100.00
73297;BME280;61524;50.938;11.396;2024-03-02T00:54:26;97961.34;;;2.90;100.00
73297;BME280;61524;50.938;11.396;2024-03-02T00:56:53;97966.44;;;2.92;100.00
73297;BME280;61524;50.938;11.396;2024-03-02T00:59:21;97964.59;;;2.93;100.00
73297;BME280;61524;50.938;11.396;2024-03-02T01:01:48;97955.75;;;2.87;100.00
73297;BME280;61524;50.938;11.396;2024-03-02T01:04:14;97963.78;;;2.92;100.00
73297;BME280;61524;50.938;11.396;2024-03-02T01:06:39;97960.94;;;2.94;100.00
73297;BME280;61524;50.938;11.396;2024-03-02T01:09:05;97967.94;;;3.00;100.00
73297;BME280;61524;50.938;11.396;2024-03-02T01:11:30;97961.50;;;2.96;100.00
73297;BME280;61524;50.938;11.396;2024-03-02T01:13:56;97976.75;;;2.94;100.00
73297;BME280;61524;50.938;11.396;2024-03-02T01:16:21;97967.94;;;3.00;100.00
73297;BME280;61524;50.938;11.396;2024-03-02T01:18:47;97963.25;;;3.02;100.00
73297;BME280;61524;50.938;11.396;2024-03-02T01:21:13;97960.16;;;3.05;100.00
73297;BME280;61524;50.938;11.396;2024-03-02T01:23:38;97967.28;;;3.04;100.00
73297;BME280;61524;50.938;11.396;2024-03-02T01:26:04;97947.31;;;2.97;100.00
73297;BME280;61524;50.938;11.396;2024-03-02T01:28:29;97966.59;;;3.09;100.00
73297;BME280;61524;50.938;11.396;2024-03-02T01:30:55;97958.13;;;3.07;100.00
73297;BME280;61524;50.938;11.396;2024-03-02T01:33:20;97963.50;;;3.12;100.00
73297;BME280;61524;50.938;11.396;2024-03-02T01:35:46;97973.03;;;3.13;100.00
73297;BME280;61524;50.938;11.396;2024-03-02T01:38:12;97960.19;;;3.16;100.00
73297;BME280;61524;50.938;11.396;2024-03-02T01:40:38;97958.34;;;3.17;100.00
73297;BME280;61524;50.938;11.396;2024-03-02T01:43:04;97961.34;;;3.21;100.00
73297;BME280;61524;50.938;11.396;2024-03-02T01:45:30;97962.97;;;3.22;100.00
73297;BME280;61524;50.938;11.396;2024-03-02T01:47:56;97962.06;;;3.28;100.00
73297;BME280;61524;50.938;11.396;2024-03-02T01:50:29;97966.53;;;3.27;100.00
73297;BME280;61524;50.938;11.396;2024-03-02T01:52:58;97964.91;;;3.26;100.00
73297;BME280;61524;50.938;11.396;2024-03-02T01:55:23;97973.88;;;3.25;100.00
73297;BME280;61524;50.938;11.396;2024-03-02T01:57:50;97977.88;;;3.28;100.00
73297;BME280;61524;50.938;11.396;2024-03-02T02:00:20;97969.03;;;3.22;100.00
73297;BME280;61524;50.938;11.396;2024-03-02T02:02:46;97965.72;;;3.27;100.00
73297;BME280;61524;50.938;11.396;2024-03-02T02:05:13;97966.88;;;3.31;100.00
73297;BME280;61524;50.938;11.396;2024-03-02T02:07:40;97970.19;;;3.26;100.00
73297;BME280;61524;50.938;11.396;2024-03-02T02:10:06;97961.38;;;3.32;100.00
73297;BME280;61524;50.938;11.396;2024-03-02T02:12:31;97981.00;;;3.36;100.00
73297;BME280;61524;50.938;11.396;2024-03-02T02:14:57;97977.22;;;3.32;100.00
73297;BME280;61524;50.938;11.396;2024-03-02T02:17:22;97959.91;;;3.36;100.00
73297;BME280;61524;50.938;11.396;2024-03-02T02:19:48;97975.47;;;3.26;100.00
73297;BME280;61524;50.938;11.396;2024-03-02T02:22:13;97969.50;;;3.19;100.00
73297;BME280;61524;50.938;11.396;2024-03-02T02:24:42;97964.22;;;3.19;100.00
73297;BME280;61524;50.938;11.396;2024-03-02T02:27:08;97969.09;;;3.34;100.00
73297;BME280;61524;50.938;11.396;2024-03-02T02:29:33;97968.97;;;3.40;100.00
73297;BME280;61524;50.938;11.396;2024-03-02T02:31:59;97969.16;;;3.27;100.00
73297;BME280;61524;50.938;11.396;2024-03-02T02:34:24;97974.16;;;3.47;100.00
73297;BME280;61524;50.938;11.396;2024-03-02T02:36:50;97977.56;;;3.36;100.00
73297;BME280;61524;50.938;11.396;2024-03-02T02:39:18;97978.06;;;3.45;100.00
73297;BME280;61524;50.938;11.396;2024-03-02T02:41:45;97987.13;;;3.49;100.00
73297;BME280;61524;50.938;11.396;2024-03-02T02:44:10;97983.56;;;3.43;100.00
73297;BME280;61524;50.938;11.396;2024-03-02T02:46:39;97981.63;;;3.50;100.00
73297;BME280;61524;50.938;11.396;2024-03-02T02:49:05;97982.69;;;3.61;100.00
73297;BME280;61524;50.938;11.396;2024-03-02T02:51:30;97997.94;;;3.59;100.00
73297;BME280;61524;50.938;11.396;2024-03-02T02:53:56;98002.53;;;3.63;100.00
73297;BME280;61524;50.938;11.396;2024-03-02T02:56:21;97984.53;;;3.72;100.00
73297;BME280;61524;50.938;11.396;2024-03-02T02:58:47;97992.78;;;3.76;100.00
73297;BME280;61524;50.938;11.396;2024-03-02T03:01:12;97988.66;;;3.80;100.00
73297;BME280;61524;50.938;11.396;2024-03-02T03:03:38;97997.25;;;3.75;100.00
73297;BME280;61524;50.938;11.396;2024-03-02T03:06:04;97981.53;;;3.68;100.00
73297;BME280;61524;50.938;11.396;2024-03-02T03:08:29;97995.78;;;3.67;100.00
73297;BME280;61524;50.938;11.396;2024-03-02T03:10:55;97989.81;;;3.72;100.00
73297;BME280;61524;50.938;11.396;2024-03-02T03:13:20;97994.63;;;3.75;100.00
73297;BME280;61524;50.938;11.396;2024-03-02T03:15:46;97990.06;;;3.82;100.00
73297;BME280;61524;50.938;11.396;2024-03-02T03:18:11;97995.44;;;3.87;100.00
73297;BME280;61524;50.938;11.396;2024-03-02T03:20:36;97994.41;;;3.88;100.00
73297;BME280;61524;50.938;11.396;2024-03-02T03:23:02;97996.03;;;3.89;100.00
73297;BME280;61524;50.938;11.396;2024-03-02T03:25:29;97996.13;;;3.94;100.00
73297;BME280;61524;50.938;11.396;2024-03-02T03:27:55;97992.00;;;3.99;100.00
73297;BME280;61524;50.938;11.396;2024-03-02T03:30:20;97986.94;;;3.97;100.00
73297;BME280;61524;50.938;11.396;2024-03-02T03:32:45;97982.00;;;4.01;100.00
73297;BME280;61524;50.938;11.396;2024-03-02T03:35:13;97986.00;;;4.03;100.00
73297;BME280;61524;50.938;11.396;2024-03-02T03:37:40;97977.97;;;4.10;100.00
73297;BME280;61524;50.938;11.396;2024-03-02T03:40:06;97987.88;;;4.14;100.00
73297;BME280;61524;50.938;11.396;2024-03-02T03:42:38;97982.13;;;4.06;100.00
73297;BME280;61524;50.938;11.396;2024-03-02T03:45:04;97987.63;;;4.04;100.00
73297;BME280;61524;50.938;11.396;2024-03-02T03:47:31;97978.44;;;4.07;100.00
73297;BME280;61524;50.938;11.396;2024-03-02T03:49:56;97979.00;;;4.09;100.00
73297;BME280;61524;50.938;11.396;2024-03-02T03:52:23;97969.25;;;4.09;100.00
73297;BME280;61524;50.938;11.396;2024-03-02T03:54:48;97965.34;;;4.12;100.00
73297;BME280;61524;50.938;11.396;2024-03-02T03:57:14;97960.41;;;4.15;100.00
73297;BME280;61524;50.938;11.396;2024-03-02T03:59:39;97961.09;;;4.11;100.00
73297;BME280;61524;50.938;11.396;2024-03-02T04:02:04;97959.25;;;4.11;100.00
73297;BME280;61524;50.938;11.396;2024-03-02T04:04:30;97957.06;;;4.08;100.00
73297;BME280;61524;50.938;11.396;2024-03-02T04:06:55;97956.59;;;4.11;100.00
73297;BME280;61524;50.938;11.396;2024-03-02T04:09:21;97967.97;;;4.12;100.00
73297;BME280;61524;50.938;11.396;2024-03-02T04:11:46;97968.78;;;4.01;100.00
73297;BME280;61524;50.938;11.396;2024-03-02T04:14:12;97963.84;;;3.92;100.00
73297;BME280;61524;50.938;11.396;2024-03-02T04:16:38;97965.34;;;3.88;100.00
73297;BME280;61524;50.938;11.396;2024-03-02T04:19:04;97961.78;;;3.83;100.00
73297;BME280;61524;50.938;11.396;2024-03-02T04:21:30;97949.63;;;3.93;100.00
73297;BME280;61524;50.938;11.396;2024-03-02T04:23:55;97955.91;;;4.16;100.00
73297;BME280;61524;50.938;11.396;2024-03-02T04:26:25;97955.19;;;4.32;100.00
73297;BME280;61524;50.938;11.396;2024-03-02T04:28:54;97954.94;;;4.45;100.00
73297;BME280;61524;50.938;11.396;2024-03-02T04:31:20;97958.47;;;4.51;100.00
73297;BME280;61524;50.938;11.396;2024-03-02T04:33:46;97964.47;;;4.58;100.00
73297;BME280;61524;50.938;11.396;2024-03-02T04:36:11;97958.13;;;4.59;100.00
73297;BME280;61524;50.938;11.396;2024-03-02T04:38:38;97964.75;;;4.73;100.00
73297;BME280;61524;50.938;11.396;2024-03-02T04:41:06;97966.81;;;4.71;100.00
73297;BME280;61524;50.938;11.396;2024-03-02T04:43:33;97969.38;;;4.66;100.00
73297;BME280;61524;50.938;11.396;2024-03-02T04:45:59;97980.63;;;4.73;100.00
73297;BME280;61524;50.938;11.396;2024-03-02T04:48:24;97974.50;;;4.85;100.00
73297;BME280;61524;50.938;11.396;2024-03-02T04:50:50;97971.69;;;4.91;100.00
73297;BME280;61524;50.938;11.396;2024-03-02T04:53:16;97981.78;;;5.06;100.00
73297;BME280;61524;50.938;11.396;2024-03-02T04:55:41;97988.75;;;5.12;100.00
73297;BME280;61524;50.938;11.396;2024-03-02T04:58:07;97977.69;;;5.15;100.00
73297;BME280;61524;50.938;11.396;2024-03-02T05:00:33;97990.56;;;5.23;100.00
73297;BME280;61524;50.938;11.396;2024-03-02T05:02:58;97978.47;;;5.16;100.00
73297;BME280;61524;50.938;11.396;2024-03-02T05:05:23;97986.06;;;5.24;100.00
73297;BME280;61524;50.938;11.396;2024-03-02T05:07:49;97975.94;;;5.21;100.00
73297;BME280;61524;50.938;11.396;2024-03-02T05:10:15;97990.06;;;5.26;100.00
73297;BME280;61524;50.938;11.396;2024-03-02T05:12:40;97994.41;;;5.33;100.00
73297;BME280;61524;50.938;11.396;2024-03-02T05:15:06;97978.28;;;5.34;100.00
73297;BME280;61524;50.938;11.396;2024-03-02T05:17:39;97980.59;;;5.31;100.00
73297;BME280;61524;50.938;11.396;2024-03-02T05:20:06;97977.56;;;5.22;100.00
73297;BME280;61524;50.938;11.396;2024-03-02T05:22:33;97972.81;;;5.24;100.00
73297;BME280;61524;50.938;11.396;2024-03-02T05:24:59;97972.91;;;5.29;100.00
73297;BME280;61524;50.938;11.396;2024-03-02T05:27:26;97987.09;;;5.23;100.00
73297;BME280;61524;50.938;11.396;2024-03-02T05:29:51;97991.91;;;5.26;100.00
73297;BME280;61524;50.938;11.396;2024-03-02T05:32:17;97988.31;;;5.32;100.00
73297;BME280;61524;50.938;11.396;2024-03-02T05:34:42;97978.84;;;5.36;100.00
73297;BME280;61524;50.938;11.396;2024-03-02T05:37:07;97983.00;;;5.32;100.00
73297;BME280;61524;50.938;11.396;2024-03-02T05:39:33;97991.44;;;5.29;100.00
73297;BME280;61524;50.938;11.396;2024-03-02T05:41:59;97992.50;;;5.28;100.00
73297;BME280;61524;50.938;11.396;2024-03-02T05:44:24;97981.31;;;5.26;100.00
73297;BME280;61524;50.938;11.396;2024-03-02T05:46:50;97984.22;;;5.24;100.00
73297;BME280;61524;50.938;11.396;2024-03-02T05:49:15;97972.16;;;5.17;100.00
73297;BME280;61524;50.938;11.396;2024-03-02T05:51:41;97981.00;;;5.22;100.00
73297;BME280;61524;50.938;11.396;2024-03-02T05:54:06;97963.09;;;5.13;100.00
73297;BME280;61524;50.938;11.396;2024-03-02T05:56:32;97978.66;;;5.26;100.00
73297;BME280;61524;50.938;11.396;2024-03-02T05:58:58;97985.91;;;5.31;100.00
73297;BME280;61524;50.938;11.396;2024-03-02T06:01:38;97992.25;;;5.46;100.00
73297;BME280;61524;50.938;11.396;2024-03-02T06:04:03;97986.16;;;5.46;100.00
73297;BME280;61524;50.938;11.396;2024-03-02T06:06:29;97984.41;;;5.51;100.00
73297;BME280;61524;50.938;11.396;2024-03-02T06:08:54;97989.63;;;5.63;100.00
73297;BME280;61524;50.938;11.396;2024-03-02T06:11:20;97988.81;;;5.63;100.00
73297;BME280;61524;50.938;11.396;2024-03-02T06:13:46;98004.72;;;5.63;100.00
73297;BME280;61524;50.938;11.396;2024-03-02T06:16:12;98003.28;;;5.72;100.00
73297;BME280;61524;50.938;11.396;2024-03-02T06:18:37;98002.72;;;5.70;100.00
73297;BME280;61524;50.938;11.396;2024-03-02T06:21:03;97997.41;;;5.70;100.00
73297;BME280;61524;50.938;11.396;2024-03-02T06:23:29;98005.06;;;5.66;100.00
73297;BME280;61524;50.938;11.396;2024-03-02T06:25:54;98000.56;;;5.67;100.00
73297;BME280;61524;50.938;11.396;2024-03-02T06:28:19;97995.72;;;5.64;100.00
73297;BME280;61524;50.938;11.396;2024-03-02T06:30:46;97997.31;;;5.65;100.00
73297;BME280;61524;50.938;11.396;2024-03-02T06:33:11;98001.34;;;5.67;100.00
73297;BME280;61524;50.938;11.396;2024-03-02T06:35:37;98000.38;;;5.73;100.00
73297;BME280;61524;50.938;11.396;2024-03-02T06:38:03;97992.19;;;5.75;100.00
73297;BME280;61524;50.938;11.396;2024-03-02T06:40:28;97996.38;;;5.71;100.00
73297;BME280;61524;50.938;11.396;2024-03-02T06:42:54;98003.38;;;5.77;100.00
73297;BME280;61524;50.938;11.396;2024-03-02T06:45:20;97995.00;;;5.85;100.00
73297;BME280;61524;50.938;11.396;2024-03-02T06:47:45;97993.72;;;5.88;100.00
73297;BME280;61524;50.938;11.396;2024-03-02T06:50:11;98002.34;;;5.95;100.00
73297;BME280;61524;50.938;11.396;2024-03-02T06:52:36;97997.38;;;5.98;100.00
73297;BME280;61524;50.938;11.396;2024-03-02T06:55:02;98002.16;;;6.01;100.00
73297;BME280;61524;50.938;11.396;2024-03-02T06:57:29;98004.75;;;5.96;100.00
73297;BME280;61524;50.938;11.396;2024-03-02T06:59:55;98004.19;;;5.94;100.00
73297;BME280;61524;50.938;11.396;2024-03-02T07:02:26;98006.41;;;6.02;100.00
73297;BME280;61524;50.938;11.396;2024-03-02T07:04:53;98002.16;;;6.01;100.00
73297;BME280;61524;50.938;11.396;2024-03-02T07:07:18;98005.84;;;6.17;100.00
73297;BME280;61524;50.938;11.396;2024-03-02T07:09:44;97999.41;;;6.30;100.00
73297;BME280;61524;50.938;11.396;2024-03-02T07:12:09;98009.19;;;6.29;100.00
73297;BME280;61524;50.938;11.396;2024-03-02T07:14:35;98011.69;;;6.36;100.00
73297;BME280;61524;50.938;11.396;2024-03-02T07:17:22;98006.91;;;6.55;100.00
73297;BME280;61524;50.938;11.396;2024-03-02T07:19:47;98007.22;;;6.58;100.00
73297;BME280;61524;50.938;11.396;2024-03-02T07:22:13;98021.97;;;6.71;100.00
73297;BME280;61524;50.938;11.396;2024-03-02T07:24:42;98017.22;;;6.73;100.00
73297;BME280;61524;50.938;11.396;2024-03-02T07:27:12;98021.66;;;6.90;100.00
73297;BME280;61524;50.938;11.396;2024-03-02T07:29:38;98021.72;;;6.95;100.00
73297;BME280;61524;50.938;11.396;2024-03-02T07:32:05;98032.94;;;7.02;100.00
73297;BME280;61524;50.938;11.396;2024-03-02T07:34:30;98024.03;;;7.13;100.00
73297;BME280;61524;50.938;11.396;2024-03-02T07:36:56;98046.25;;;7.29;100.00
73297;BME280;61524;50.938;11.396;2024-03-02T07:39:21;98029.84;;;7.37;100.00
73297;BME280;61524;50.938;11.396;2024-03-02T07:41:47;98043.66;;;7.61;100.00
73297;BME280;61524;50.938;11.396;2024-03-02T07:44:13;98033.97;;;7.77;100.00
73297;BME280;61524;50.938;11.396;2024-03-02T07:46:43;98043.09;;;7.86;100.00
73297;BME280;61524;50.938;11.396;2024-03-02T07:49:09;98050.94;;;8.03;100.00
73297;BME280;61524;50.938;11.396;2024-03-02T07:51:35;98048.31;;;8.08;100.00
73297;BME280;61524;50.938;11.396;2024-03-02T07:54:00;98048.66;;;8.22;99.77
73297;BME280;61524;50.938;11.396;2024-03-02T07:56:26;98039.53;;;8.39;99.75
73297;BME280;61524;50.938;11.396;2024-03-02T07:58:52;98045.38;;;8.41;98.73
73297;BME280;61524;50.938;11.396;2024-03-02T08:01:17;98042.53;;;8.58;97.90
73297;BME280;61524;50.938;11.396;2024-03-02T08:03:43;98058.78;;;8.57;98.23
73297;BME280;61524;50.938;11.396;2024-03-02T08:06:22;98059.47;;;8.84;97.48
73297;BME280;61524;50.938;11.396;2024-03-02T08:08:47;98047.22;;;8.88;97.52
73297;BME280;61524;50.938;11.396;2024-03-02T08:11:13;98065.09;;;8.98;97.03
73297;BME280;61524;50.938;11.396;2024-03-02T08:13:38;98057.94;;;8.99;96.03
73297;BME280;61524;50.938;11.396;2024-03-02T08:16:04;98048.94;;;9.15;95.86
73297;BME280;61524;50.938;11.396;2024-03-02T08:18:32;98053.94;;;9.06;96.68
73297;BME280;61524;50.938;11.396;2024-03-02T08:20:58;98051.28;;;9.06;96.33
73297;BME280;61524;50.938;11.396;2024-03-02T08:23:24;98062.25;;;9.10;95.71
73297;BME280;61524;50.938;11.396;2024-03-02T08:25:49;98057.47;;;9.17;96.19
73297;BME280;61524;50.938;11.396;2024-03-02T08:28:15;98064.94;;;9.30;95.86
73297;BME280;61524;50.938;11.396;2024-03-02T08:30:40;98062.31;;;9.40;95.08
73297;BME280;61524;50.938;11.396;2024-03-02T08:33:05;98066.38;;;9.58;95.16
73297;BME280;61524;50.938;11.396;2024-03-02T08:35:31;98071.69;;;9.58;92.96
73297;BME280;61524;50.938;11.396;2024-03-02T08:38:01;98070.09;;;9.62;91.05
73297;BME280;61524;50.938;11.396;2024-03-02T08:40:27;98068.22;;;9.58;91.28
73297;BME280;61524;50.938;11.396;2024-03-02T08:42:52;98065.53;;;9.58;90.49
73297;BME280;61524;50.938;11.396;2024-03-02T08:45:18;98066.88;;;9.50;90.20
73297;BME280;61524;50.938;11.396;2024-03-02T08:47:45;98071.13;;;9.46;90.59
73297;BME280;61524;50.938;11.396;2024-03-02T08:50:11;98068.47;;;9.56;89.09
73297;BME280;61524;50.938;11.396;2024-03-02T08:52:36;98082.38;;;9.68;88.96
73297;BME280;61524;50.938;11.396;2024-03-02T08:55:02;98074.66;;;9.77;88.11
73297;BME280;61524;50.938;11.396;2024-03-02T08:57:27;98084.81;;;9.85;89.30
73297;BME280;61524;50.938;11.396;2024-03-02T08:59:53;98072.28;;;9.86;90.65
73297;BME280;61524;50.938;11.396;2024-03-02T09:02:18;98081.88;;;9.87;91.34
73297;BME280;61524;50.938;11.396;2024-03-02T09:04:44;98076.00;;;9.80;89.65
73297;BME280;61524;50.938;11.396;2024-03-02T09:07:09;98080.25;;;9.70;88.52
73297;BME280;61524;50.938;11.396;2024-03-02T09:09:35;98086.13;;;9.72;88.13
73297;BME280;61524;50.938;11.396;2024-03-02T09:12:00;98091.19;;;9.64;88.67
73297;BME280;61524;50.938;11.396;2024-03-02T09:14:26;98079.16;;;9.61;87.59
73297;BME280;61524;50.938;11.396;2024-03-02T09:16:52;98083.69;;;9.61;88.66
73297;BME280;61524;50.938;11.396;2024-03-02T09:19:17;98083.94;;;9.54;88.97
73297;BME280;61524;50.938;11.396;2024-03-02T09:21:43;98087.91;;;9.41;88.97
73297;BME280;61524;50.938;11.396;2024-03-02T09:24:09;98092.22;;;9.48;89.53
73297;BME280;61524;50.938;11.396;2024-03-02T09:26:35;98085.56;;;9.65;89.56
73297;BME280;61524;50.938;11.396;2024-03-02T09:29:00;98097.34;;;9.85;90.09
73297;BME280;61524;50.938;11.396;2024-03-02T09:31:26;98087.47;;;10.06;90.52
73297;BME280;61524;50.938;11.396;2024-03-02T09:33:51;98087.47;;;10.00;90.31
73297;BME280;61524;50.938;11.396;2024-03-02T09:36:18;98083.72;;;10.17;89.89
73297;BME280;61524;50.938;11.396;2024-03-02T09:38:44;98080.56;;;10.35;89.54
73297;BME280;61524;50.938;11.396;2024-03-02T09:41:09;98078.44;;;10.32;88.17
73297;BME280;61524;50.938;11.396;2024-03-02T09:43:35;98089.38;;;10.46;88.69
73297;BME280;61524;50.938;11.396;2024-03-02T09:46:00;98088.81;;;10.64;87.81
73297;BME280;61524;50.938;11.396;2024-03-02T09:48:26;98074.91;;;10.62;88.13
73297;BME280;61524;50.938;11.396;2024-03-02T09:50:51;98083.75;;;10.52;88.48
73297;BME280;61524;50.938;11.396;2024-03-02T09:53:18;98077.59;;;10.57;88.70
73297;BME280;61524;50.938;11.396;2024-03-02T09:55:47;98077.91;;;10.30;89.01
73297;BME280;61524;50.938;11.396;2024-03-02T09:58:12;98081.66;;;10.24;87.75
73297;BME280;61524;50.938;11.396;2024-03-02T10:00:38;98076.31;;;10.34;87.32
73297;BME280;61524;50.938;11.396;2024-03-02T10:03:03;98089.38;;;10.41;87.83
73297;BME280;61524;50.938;11.396;2024-03-02T10:05:30;98091.75;;;10.47;86.41
73297;BME280;61524;50.938;11.396;2024-03-02T10:08:00;98093.38;;;10.48;86.34
73297;BME280;61524;50.938;11.396;2024-03-02T10:10:35;98098.44;;;10.50;86.87
73297;BME280;61524;50.938;11.396;2024-03-02T10:13:05;98096.31;;;10.52;87.81
73297;BME280;61524;50.938;11.396;2024-03-02T10:15:30;98094.94;;;10.65;86.55
73297;BME280;61524;50.938;11.396;2024-03-02T10:17:56;98087.16;;;10.84;85.10
73297;BME280;61524;50.938;11.396;2024-03-02T10:20:24;98101.91;;;10.71;85.78
73297;BME280;61524;50.938;11.396;2024-03-02T10:22:50;98087.69;;;10.75;84.71
73297;BME280;61524;50.938;11.396;2024-03-02T10:25:33;98102.41;;;10.73;87.19
73297;BME280;61524;50.938;11.396;2024-03-02T10:27:59;98092.56;;;10.48;87.58
73297;BME280;61524;50.938;11.396;2024-03-02T10:30:28;98098.44;;;10.50;89.55
73297;BME280;61524;50.938;11.396;2024-03-02T10:32:55;98088.84;;;10.34;88.75
73297;BME280;61524;50.938;11.396;2024-03-02T10:35:23;98092.56;;;10.33;89.39
73297;BME280;61524;50.938;11.396;2024-03-02T10:37:49;98091.78;;;10.42;88.85
73297;BME280;61524;50.938;11.396;2024-03-02T10:40:15;98091.22;;;10.56;89.49
73297;BME280;61524;50.938;11.396;2024-03-02T10:42:42;98098.44;;;10.55;88.28
73297;BME280;61524;50.938;11.396;2024-03-02T10:45:09;98091.53;;;10.34;88.53
73297;BME280;61524;50.938;11.396;2024-03-02T10:47:38;98087.75;;;10.19;88.39
73297;BME280;61524;50.938;11.396;2024-03-02T10:50:07;98093.13;;;10.24;88.61
73297;BME280;61524;50.938;11.396;2024-03-02T10:52:35;98093.63;;;10.11;88.75
73297;BME280;61524;50.938;11.396;2024-03-02T10:55:00;98082.94;;;10.11;89.04
73297;BME280;61524;50.938;11.396;2024-03-02T10:57:26;98094.69;;;10.10;88.33
73297;BME280;61524;50.938;11.396;2024-03-02T11:00:02;98088.81;;;10.13;88.16
73297;BME280;61524;50.938;11.396;2024-03-02T11:02:30;98085.59;;;10.16;89.50
73297;BME280;61524;50.938;11.396;2024-03-02T11:04:59;98089.06;;;10.22;88.31
73297;BME280;61524;50.938;11.396;2024-03-02T11:07:27;98078.69;;;10.25;88.56
73297;BME280;61524;50.938;11.396;2024-03-02T11:10:01;98078.69;;;10.41;88.00
73297;BME280;61524;50.938;11.396;2024-03-02T11:12:38;98077.09;;;10.45;87.51
73297;BME280;61524;50.938;11.396;2024-03-02T11:15:10;98088.81;;;10.54;87.03
73297;BME280;61524;50.938;11.396;2024-03-02T11:17:36;98065.84;;;10.63;86.15
73297;BME280;61524;50.938;11.396;2024-03-02T11:20:03;98077.75;;;10.96;85.80
73297;BME280;61524;50.938;11.396;2024-03-02T11:22:29;98067.28;;;11.10;84.82
73297;BME280;61524;50.938;11.396;2024-03-02T11:24:55;98072.03;;;11.23;85.45
73297;BME280;61524;50.938;11.396;2024-03-02T11:33:01;98068.47;;;10.84;84.70
73297;BME280;61524;50.938;11.396;2024-03-02T11:35:34;98068.41;;;10.99;85.13
73297;BME280;61524;50.938;11.396;2024-03-02T11:38:01;98060.63;;;11.02;85.40
73297;BME280;61524;50.938;11.396;2024-03-02T11:40:28;98054.91;;;11.24;83.81
73297;BME280;61524;50.938;11.396;2024-03-02T11:42:54;98058.25;;;11.50;84.34
73297;BME280;61524;50.938;11.396;2024-03-02T11:45:24;98054.81;;;11.89;83.86
73297;BME280;61524;50.938;11.396;2024-03-02T11:47:51;98049.84;;;11.67;81.21
73297;BME280;61524;50.938;11.396;2024-03-02T11:50:39;98051.56;;;11.53;81.13
73297;BME280;61524;50.938;11.396;2024-03-02T11:53:06;98049.25;;;11.80;81.82
73297;BME280;61524;50.938;11.396;2024-03-02T11:55:35;98054.34;;;11.77;80.71
73297;BME280;61524;50.938;11.396;2024-03-02T11:58:12;98038.72;;;11.55;79.87
73297;BME280;61524;50.938;11.396;2024-03-02T12:00:38;98042.50;;;11.88;79.48
73297;BME280;61524;50.938;11.396;2024-03-02T12:03:08;98043.81;;;11.96;78.13
73297;BME280;61524;50.938;11.396;2024-03-02T12:05:34;98042.84;;;11.76;79.41
73297;BME280;61524;50.938;11.396;2024-03-02T12:08:04;98046.59;;;11.75;78.70
73297;BME280;61524;50.938;11.396;2024-03-02T12:10:32;98046.41;;;12.06;77.53
73297;BME280;61524;50.938;11.396;2024-03-02T12:13:02;98047.13;;;12.17;75.99
73297;BME280;61524;50.938;11.396;2024-03-02T12:15:29;98042.53;;;12.22;76.02
73297;BME280;61524;50.938;11.396;2024-03-02T12:17:56;98028.19;;;12.08;73.53
73297;BME280;61524;50.938;11.396;2024-03-02T12:20:27;98026.66;;;11.97;72.32
73297;BME280;61524;50.938;11.396;2024-03-02T12:22:55;98030.47;;;11.91;74.05
73297;BME280;61524;50.938;11.396;2024-03-02T12:25:21;98016.03;;;11.87;71.98
73297;BME280;61524;50.938;11.396;2024-03-02T12:27:49;98018.44;;;11.88;72.31
73297;BME280;61524;50.938;11.396;2024-03-02T12:30:18;98029.72;;;11.85;72.43
73297;BME280;61524;50.938;11.396;2024-03-02T12:32:44;98020.31;;;11.88;73.49
73297;BME280;61524;50.938;11.396;2024-03-02T12:35:10;98027.00;;;11.90;73.09
73297;BME280;61524;50.938;11.396;2024-03-02T12:40:11;98025.06;;;11.96;71.29
73297;BME280;61524;50.938;11.396;2024-03-02T12:42:37;98015.91;;;12.02;70.65
73297;BME280;61524;50.938;11.396;2024-03-02T12:45:03;98021.28;;;12.02;71.93
73297;BME280;61524;50.938;11.396;2024-03-02T12:47:29;98025.00;;;12.06;72.22
73297;BME280;61524;50.938;11.396;2024-03-02T12:49:55;98011.81;;;12.09;72.85
73297;BME280;61524;50.938;11.396;2024-03-02T12:52:21;98015.25;;;12.15;72.66
73297;BME280;61524;50.938;11.396;2024-03-02T12:54:49;98007.66;;;12.27;72.66
73297;BME280;61524;50.938;11.396;2024-03-02T12:57:18;98000.94;;;12.30;70.79
73297;BME280;61524;50.938;11.396;2024-03-02T12:59:47;97999.22;;;12.10;71.75